createdAt,value
2023-03-17T00:01:55.105Z,6.80
2023-03-17T00:04:26.471Z,6.80
2023-03-17T00:06:55.288Z,6.80
2023-03-17T00:09:22.747Z,6.90
2023-03-17T00:11:50.334Z,6.90
2023-03-17T00:14:17.920Z,6.80
2023-03-17T00:16:50.049Z,6.90
2023-03-17T00:19:32.375Z,6.80
2023-03-17T00:22:01.109Z,6.80
2023-03-17T00:24:29.138Z,6.80
2023-03-17T00:26:56.526Z,6.70
2023-03-17T00:29:24.350Z,6.70
2023-03-17T00:31:51.550Z,6.70
2023-03-17T00:34:19.628Z,6.70
2023-03-17T00:36:51.519Z,6.70
2023-03-17T00:39:19.082Z,6.60
2023-03-17T00:44:12.633Z,6.70
2023-03-17T00:46:41.708Z,6.70
2023-03-17T00:49:12.204Z,6.80
2023-03-17T00:51:39.601Z,6.80
2023-03-17T00:54:07.077Z,6.70
2023-03-17T00:56:34.244Z,6.80
2023-03-17T00:59:01.625Z,6.70
2023-03-17T01:01:28.710Z,6.70
2023-03-17T01:03:56.180Z,6.70
2023-03-17T01:06:23.313Z,6.60
2023-03-17T01:08:50.585Z,6.60
2023-03-17T01:11:19.562Z,6.50
2023-03-17T01:13:46.947Z,6.60
2023-03-17T01:16:15.705Z,6.50
2023-03-17T01:18:43.656Z,6.50
2023-03-17T01:21:10.839Z,6.50
2023-03-17T01:23:38.191Z,6.50
2023-03-17T01:26:06.709Z,6.50
2023-03-17T01:28:34.658Z,6.60
2023-03-17T01:31:02.974Z,6.60
2023-03-17T01:33:30.139Z,6.50
2023-03-17T01:35:57.652Z,6.50
2023-03-17T01:38:24.895Z,6.50
2023-03-17T01:40:53.579Z,6.50
2023-03-17T01:43:27.762Z,6.40
2023-03-17T01:46:13.201Z,6.40
2023-03-17T01:48:45.864Z,6.50
2023-03-17T01:51:21.308Z,6.40
2023-03-17T01:53:51.344Z,6.40
2023-03-17T01:56:19.277Z,6.40
2023-03-17T01:58:48.628Z,6.40
2023-03-17T02:01:17.317Z,6.50
2023-03-17T02:03:46.161Z,6.50
2023-03-17T02:06:13.507Z,6.60
2023-03-17T02:08:40.625Z,6.60
2023-03-17T02:11:08.910Z,6.60
2023-03-17T02:13:37.180Z,6.40
2023-03-17T02:16:04.415Z,6.40
2023-03-17T02:18:32.065Z,6.40
2023-03-17T02:21:36.633Z,6.40
2023-03-17T02:24:09.579Z,6.30
2023-03-17T02:26:38.002Z,6.30
2023-03-17T02:29:06.177Z,6.30
2023-03-17T02:31:34.941Z,6.30
2023-03-17T02:34:02.721Z,6.30
2023-03-17T02:36:29.873Z,6.30
2023-03-17T02:38:57.903Z,6.30
2023-03-17T02:41:25.047Z,6.30
2023-03-17T02:43:53.852Z,6.30
2023-03-17T02:46:21.245Z,6.20
2023-03-17T02:48:49.285Z,6.10
2023-03-17T02:51:17.549Z,6.20
2023-03-17T02:53:44.686Z,6.20
2023-03-17T02:56:12.175Z,6.20
2023-03-17T02:58:39.250Z,6.20
2023-03-17T03:01:06.472Z,6.20
2023-03-17T03:03:33.572Z,6.10
2023-03-17T03:06:03.006Z,6.20
2023-03-17T03:08:30.996Z,6.20
2023-03-17T03:10:58.053Z,6.20
2023-03-17T03:13:25.241Z,6.20
2023-03-17T03:15:52.302Z,6.10
2023-03-17T03:18:20.357Z,6.10
2023-03-17T03:20:47.632Z,6.20
2023-03-17T03:23:16.290Z,6.20
2023-03-17T03:25:43.680Z,6.10
2023-03-17T03:28:11.083Z,6.10
2023-03-17T03:30:38.764Z,6.10
2023-03-17T03:33:06.759Z,6.10
2023-03-17T03:35:34.688Z,6.10
2023-03-17T03:38:02.343Z,6.00
2023-03-17T03:40:29.732Z,6.00
2023-03-17T03:43:02.409Z,6.00
2023-03-17T03:45:33.133Z,6.00
2023-03-17T03:48:00.255Z,5.90
2023-03-17T03:50:27.342Z,5.90
2023-03-17T03:52:54.400Z,5.90
2023-03-17T03:55:21.455Z,5.90
2023-03-17T03:57:48.499Z,5.80
2023-03-17T04:00:17.842Z,5.80
2023-03-17T04:02:47.529Z,5.80
2023-03-17T04:05:15.837Z,5.70
2023-03-17T04:07:43.425Z,5.70
2023-03-17T04:10:12.357Z,5.70
2023-03-17T04:12:39.688Z,5.70
2023-03-17T04:15:09.295Z,5.70
2023-03-17T04:17:36.670Z,5.70
2023-03-17T04:20:04.437Z,5.70
2023-03-17T04:22:31.825Z,5.70
2023-03-17T04:24:58.880Z,5.70
2023-03-17T04:27:26.064Z,5.70
2023-03-17T04:29:54.011Z,5.70
2023-03-17T04:32:21.606Z,5.70
2023-03-17T04:34:53.304Z,5.70
2023-03-17T04:37:20.734Z,5.80
2023-03-17T04:39:47.849Z,5.80
2023-03-17T04:42:15.243Z,5.70
2023-03-17T04:44:43.216Z,5.70
2023-03-17T04:47:10.876Z,5.70
2023-03-17T04:49:38.148Z,5.70
2023-03-17T04:52:05.367Z,5.60
2023-03-17T04:54:32.468Z,5.60
2023-03-17T04:56:59.621Z,5.50
2023-03-17T04:59:27.543Z,5.50
2023-03-17T05:01:54.687Z,5.50
2023-03-17T05:04:31.309Z,5.50
2023-03-17T05:06:59.613Z,5.50
2023-03-17T05:09:28.863Z,5.50
2023-03-17T05:11:56.315Z,5.40
2023-03-17T05:14:23.435Z,5.40
2023-03-17T05:16:51.238Z,5.50
2023-03-17T05:19:18.627Z,5.50
2023-03-17T05:21:45.679Z,5.60
2023-03-17T05:24:12.723Z,5.60
2023-03-17T05:26:40.177Z,5.60
2023-03-17T05:29:09.114Z,5.60
2023-03-17T05:31:36.583Z,5.60
2023-03-17T05:34:04.382Z,5.60
2023-03-17T05:36:32.248Z,5.60
2023-03-17T05:38:59.409Z,5.70
2023-03-17T05:41:26.712Z,5.70
2023-03-17T05:43:53.720Z,5.70
2023-03-17T05:46:21.017Z,5.80
2023-03-17T05:48:49.001Z,5.80
2023-03-17T05:51:16.197Z,5.70
2023-03-17T05:53:43.687Z,5.80
2023-03-17T05:56:10.741Z,5.80
2023-03-17T05:58:37.825Z,5.70
2023-03-17T06:01:06.067Z,5.80
2023-03-17T06:03:33.344Z,5.80
2023-03-17T06:06:00.818Z,6.00
2023-03-17T06:08:27.841Z,6.20
2023-03-17T06:10:54.982Z,6.40
2023-03-17T06:13:22.312Z,6.30
2023-03-17T06:15:54.374Z,6.30
2023-03-17T06:18:21.517Z,6.30
2023-03-17T06:20:48.614Z,6.60
2023-03-17T06:23:17.203Z,6.90
2023-03-17T06:25:44.323Z,7.00
2023-03-17T06:28:11.842Z,7.30
2023-03-17T06:30:40.714Z,7.80
2023-03-17T06:33:09.392Z,8.20
2023-03-17T06:35:36.690Z,8.30
2023-03-17T06:38:03.822Z,8.40
2023-03-17T06:40:32.426Z,8.50
2023-03-17T06:43:00.057Z,8.60
2023-03-17T06:45:28.139Z,8.80
2023-03-17T06:47:55.391Z,9.20
2023-03-17T06:50:23.545Z,9.30
2023-03-17T06:52:50.769Z,9.40
2023-03-17T06:55:18.134Z,9.70
2023-03-17T06:57:45.327Z,9.70
2023-03-17T07:00:14.326Z,9.70
2023-03-17T07:02:41.729Z,9.70
2023-03-17T07:05:09.118Z,9.70
2023-03-17T07:07:36.335Z,9.60
2023-03-17T07:10:04.422Z,9.60
2023-03-17T07:12:33.101Z,9.50
2023-03-17T07:15:00.342Z,9.10
2023-03-17T07:17:27.497Z,8.80
2023-03-17T07:19:54.630Z,8.50
2023-03-17T07:22:22.168Z,8.40
2023-03-17T07:24:49.420Z,8.40
2023-03-17T07:27:17.177Z,8.40
2023-03-17T07:29:44.627Z,8.30
2023-03-17T07:32:12.038Z,8.40
2023-03-17T07:34:39.145Z,8.30
2023-03-17T07:37:07.185Z,8.40
2023-03-17T07:39:34.465Z,8.40
2023-03-17T07:42:02.575Z,8.40
2023-03-17T07:44:31.397Z,8.40
2023-03-17T07:46:59.407Z,8.50
2023-03-17T07:49:40.437Z,8.60
2023-03-17T07:52:10.486Z,8.70
2023-03-17T07:54:37.908Z,8.70
2023-03-17T07:57:06.506Z,8.80
2023-03-17T07:59:33.815Z,9.00
2023-03-17T08:02:01.730Z,9.00
2023-03-17T08:04:29.427Z,9.00
2023-03-17T08:06:57.719Z,9.10
2023-03-17T08:09:26.532Z,9.20
2023-03-17T08:11:53.704Z,9.30
2023-03-17T08:14:21.505Z,9.40
2023-03-17T08:16:51.480Z,9.40
2023-03-17T08:19:18.632Z,9.50
2023-03-17T08:21:45.776Z,9.60
2023-03-17T08:24:18.970Z,9.70
2023-03-17T08:26:49.535Z,9.70
2023-03-17T08:29:16.602Z,9.80
2023-03-17T08:31:46.477Z,9.80
2023-03-17T08:34:14.264Z,9.80
2023-03-17T08:36:41.682Z,9.90
2023-03-17T08:39:11.164Z,10.00
2023-03-17T08:41:38.934Z,10.10
2023-03-17T08:44:06.147Z,10.10
2023-03-17T08:46:33.561Z,10.20
2023-03-17T08:49:05.307Z,10.30
2023-03-17T08:51:34.929Z,10.40
2023-03-17T08:54:02.638Z,10.50
2023-03-17T08:56:29.720Z,10.70
2023-03-17T08:58:56.917Z,10.80
2023-03-17T09:01:24.633Z,10.80
2023-03-17T09:03:53.725Z,10.90
2023-03-17T09:06:21.460Z,11.00
2023-03-17T09:08:51.127Z,11.20
2023-03-17T09:11:20.581Z,11.40
2023-03-17T09:13:48.259Z,11.40
2023-03-17T09:16:16.508Z,11.40
2023-03-17T09:18:44.211Z,11.50
2023-03-17T09:21:13.691Z,11.70
2023-03-17T09:23:41.704Z,11.70
2023-03-17T09:26:09.211Z,11.70
2023-03-17T09:28:36.509Z,11.80
2023-03-17T09:31:11.629Z,12.00
2023-03-17T09:33:42.533Z,12.10
2023-03-17T09:36:12.410Z,12.20
2023-03-17T09:38:39.698Z,12.20
2023-03-17T09:41:23.971Z,12.30
2023-03-17T09:43:53.783Z,12.30
2023-03-17T09:46:42.830Z,12.30
2023-03-17T09:49:15.108Z,12.40
2023-03-17T09:51:45.428Z,12.40
2023-03-17T09:54:31.517Z,12.40
2023-03-17T09:57:06.308Z,12.50
2023-03-17T09:59:37.223Z,12.50
2023-03-17T10:02:16.521Z,12.50
2023-03-17T10:04:45.719Z,12.40
2023-03-17T10:07:17.244Z,12.40
2023-03-17T10:10:14.966Z,12.40
2023-03-17T10:12:53.945Z,12.60
2023-03-17T10:15:28.105Z,12.70
2023-03-17T10:17:55.172Z,12.80
2023-03-17T10:20:32.471Z,13.00
2023-03-17T10:23:14.789Z,13.10
2023-03-17T10:25:42.993Z,13.40
2023-03-17T10:28:29.884Z,13.40
2023-03-17T10:31:15.019Z,13.40
2023-03-17T10:33:44.175Z,13.50
2023-03-17T10:36:15.020Z,13.50
2023-03-17T10:38:50.403Z,13.60
2023-03-17T10:41:17.758Z,13.60
2023-03-17T10:43:48.470Z,13.60
2023-03-17T10:46:20.278Z,13.80
2023-03-17T10:48:58.440Z,13.90
2023-03-17T10:51:34.023Z,14.00
2023-03-17T10:54:04.322Z,13.90
2023-03-17T10:56:36.503Z,13.80
2023-03-17T10:59:09.452Z,13.90
2023-03-17T11:01:44.269Z,13.70
2023-03-17T11:04:29.951Z,13.70
2023-03-17T11:06:59.796Z,13.70
2023-03-17T11:09:29.484Z,13.60
2023-03-17T11:12:38.330Z,13.60
2023-03-17T11:15:15.243Z,13.50
2023-03-17T11:17:51.031Z,13.70
2023-03-17T11:20:29.971Z,13.90
2023-03-17T11:23:22.500Z,14.10
2023-03-17T11:26:08.664Z,14.10
2023-03-17T11:28:41.301Z,14.10
2023-03-17T11:31:35.005Z,14.00
2023-03-17T11:34:34.055Z,14.00
2023-03-17T11:37:20.283Z,14.00
2023-03-17T11:39:58.112Z,14.00
2023-03-17T11:42:50.938Z,14.10
2023-03-17T11:45:31.608Z,14.20
2023-03-17T11:48:08.497Z,14.30
2023-03-17T11:50:58.063Z,14.30
2023-03-17T11:53:52.854Z,14.30
2023-03-17T11:56:26.710Z,14.30
2023-03-17T11:59:12.722Z,14.40
2023-03-17T12:01:51.383Z,14.40
2023-03-17T12:04:38.021Z,14.40
2023-03-17T12:07:18.437Z,14.50
2023-03-17T12:10:04.621Z,14.80
2023-03-17T12:12:41.003Z,15.00
2023-03-17T12:15:18.200Z,15.20
2023-03-17T12:18:10.432Z,15.20
2023-03-17T12:21:06.665Z,15.10
2023-03-17T12:23:36.824Z,15.10
2023-03-17T12:26:12.804Z,14.90
2023-03-17T12:29:12.530Z,15.00
2023-03-17T12:31:49.023Z,15.10
2023-03-17T12:35:02.611Z,15.00
2023-03-17T12:37:30.321Z,15.00
2023-03-17T12:40:20.411Z,15.10
2023-03-17T12:43:06.429Z,15.10
2023-03-17T12:46:05.538Z,15.10
2023-03-17T12:48:44.680Z,15.10
2023-03-17T12:51:31.264Z,15.30
2023-03-17T12:54:00.688Z,15.40
2023-03-17T12:56:33.733Z,15.20
2023-03-17T12:59:06.260Z,15.20
2023-03-17T13:01:37.550Z,15.30
2023-03-17T13:04:14.291Z,15.30
2023-03-17T13:06:59.603Z,15.40
2023-03-17T13:09:32.657Z,15.40
2023-03-17T13:12:02.042Z,15.50
2023-03-17T13:14:47.233Z,15.40
2023-03-17T13:17:20.062Z,15.50
2023-03-17T13:20:08.812Z,15.40
2023-03-17T13:22:38.783Z,15.60
2023-03-17T13:25:27.608Z,15.80
2023-03-17T13:28:00.267Z,15.90
2023-03-17T13:30:37.089Z,16.20
2023-03-17T13:33:10.268Z,16.30
2023-03-17T13:36:06.979Z,16.30
2023-03-17T13:39:15.148Z,16.20
2023-03-17T13:41:53.044Z,16.00
2023-03-17T13:44:20.195Z,16.20
2023-03-17T13:46:48.737Z,16.30
2023-03-17T13:49:18.999Z,16.30
2023-03-17T13:52:04.729Z,16.50
2023-03-17T13:54:35.104Z,16.50
2023-03-17T13:57:34.920Z,16.60
2023-03-17T14:00:07.841Z,16.50
2023-03-17T14:02:38.676Z,16.50
2023-03-17T14:05:09.179Z,16.40
2023-03-17T14:07:53.216Z,16.30
2023-03-17T14:10:24.373Z,16.30
2023-03-17T14:13:01.808Z,16.20
2023-03-17T14:15:35.196Z,16.20
2023-03-17T14:18:16.587Z,16.20
2023-03-17T14:20:58.475Z,16.30
2023-03-17T14:23:26.289Z,16.20
2023-03-17T14:25:57.362Z,16.20
2023-03-17T14:28:30.444Z,16.10
2023-03-17T14:31:25.521Z,15.90
2023-03-17T14:33:56.011Z,15.70
2023-03-17T14:36:24.061Z,15.80
2023-03-17T14:38:56.112Z,15.70
2023-03-17T14:41:25.675Z,15.60
2023-03-17T14:43:57.144Z,15.40
2023-03-17T14:46:27.600Z,15.30
2023-03-17T14:49:04.242Z,15.20
2023-03-17T14:51:39.837Z,15.20
2023-03-17T14:54:18.301Z,15.00
2023-03-17T14:57:02.136Z,14.90
2023-03-17T14:59:35.454Z,14.80
2023-03-17T15:02:17.607Z,14.70
2023-03-17T15:04:59.062Z,14.60
2023-03-17T15:07:35.901Z,14.50
2023-03-17T15:10:04.404Z,14.50
2023-03-17T15:12:32.114Z,14.50
2023-03-17T15:15:03.713Z,14.30
2023-03-17T15:17:37.041Z,14.30
2023-03-17T15:20:13.019Z,14.40
2023-03-17T15:22:49.004Z,14.30
2023-03-17T15:25:33.518Z,14.20
2023-03-17T15:28:01.875Z,14.20
2023-03-17T15:30:37.365Z,14.10
2023-03-17T15:33:26.512Z,14.00
2023-03-17T15:35:53.933Z,13.90
2023-03-17T15:38:21.959Z,13.80
2023-03-17T15:40:49.929Z,13.80
2023-03-17T15:43:22.204Z,13.60
2023-03-17T15:46:02.781Z,13.60
2023-03-17T15:48:36.023Z,13.50
2023-03-17T15:51:05.934Z,13.50
2023-03-17T15:53:33.378Z,13.50
2023-03-17T15:56:00.733Z,13.50
2023-03-17T15:58:28.637Z,13.50
2023-03-17T16:00:59.383Z,13.40
2023-03-17T16:03:32.931Z,13.40
2023-03-17T16:06:02.720Z,13.30
2023-03-17T16:08:30.444Z,13.30
2023-03-17T16:10:57.803Z,13.30
2023-03-17T16:13:25.218Z,13.20
2023-03-17T16:15:57.904Z,13.20
2023-03-17T16:18:43.620Z,13.20
2023-03-17T16:21:11.261Z,13.20
2023-03-17T16:23:38.751Z,13.20
2023-03-17T16:26:15.566Z,13.10
2023-03-17T16:28:45.845Z,13.10
2023-03-17T16:31:33.600Z,13.00
2023-03-17T16:34:00.902Z,13.00
2023-03-17T16:36:31.362Z,13.00
2023-03-17T16:38:59.098Z,13.00
2023-03-17T16:41:27.862Z,12.90
2023-03-17T16:44:01.434Z,12.80
2023-03-17T16:46:34.406Z,12.80
2023-03-17T16:49:02.633Z,12.80
2023-03-17T16:51:30.754Z,12.70
2023-03-17T16:53:57.994Z,12.70
2023-03-17T16:56:28.021Z,12.60
2023-03-17T16:58:55.393Z,12.50
2023-03-17T17:01:25.407Z,12.50
2023-03-17T17:03:53.557Z,12.40
2023-03-17T17:06:22.815Z,12.40
2023-03-17T17:08:51.364Z,12.30
2023-03-17T17:11:20.046Z,12.30
2023-03-17T17:13:49.112Z,12.20
2023-03-17T17:16:36.662Z,12.10
2023-03-17T17:19:04.634Z,12.00
2023-03-17T17:21:33.238Z,12.00
2023-03-17T17:24:00.666Z,12.00
2023-03-17T17:26:28.909Z,12.00
2023-03-17T17:28:56.198Z,11.90
2023-03-17T17:31:23.562Z,11.90
2023-03-17T17:33:52.650Z,11.90
2023-03-17T17:36:21.475Z,11.90
2023-03-17T17:38:48.648Z,11.90
2023-03-17T17:41:17.239Z,11.80
2023-03-17T17:43:46.404Z,11.80
2023-03-17T17:46:19.055Z,11.80
2023-03-17T17:48:47.108Z,11.70
2023-03-17T17:51:15.132Z,11.70
2023-03-17T17:53:42.389Z,11.70
2023-03-17T17:56:15.748Z,11.70
2023-03-17T17:58:43.720Z,11.70
2023-03-17T18:01:14.317Z,11.70
2023-03-17T18:03:43.262Z,11.60
2023-03-17T18:06:13.187Z,11.60
2023-03-17T18:08:42.309Z,11.50
2023-03-17T18:11:09.733Z,11.50
2023-03-17T18:13:39.205Z,11.60
2023-03-17T18:16:10.243Z,11.60
2023-03-17T18:18:40.918Z,11.60
2023-03-17T18:21:08.432Z,11.60
2023-03-17T18:23:36.796Z,11.60
2023-03-17T18:26:06.141Z,11.60
2023-03-17T18:28:34.316Z,11.60
2023-03-17T18:31:09.893Z,11.50
2023-03-17T18:33:37.581Z,11.40
2023-03-17T18:36:06.620Z,11.40
2023-03-17T18:38:34.261Z,11.40
2023-03-17T18:41:02.429Z,11.30
2023-03-17T18:43:29.517Z,11.30
2023-03-17T18:45:56.671Z,11.20
2023-03-17T18:48:24.026Z,11.30
2023-03-17T18:50:51.560Z,11.30
2023-03-17T18:53:18.974Z,11.30
2023-03-17T18:55:46.349Z,11.30
2023-03-17T18:58:14.262Z,11.30
2023-03-17T19:00:41.628Z,11.30
2023-03-17T19:03:11.116Z,11.20
2023-03-17T19:05:39.644Z,11.20
2023-03-17T19:08:07.189Z,11.20
2023-03-17T19:10:34.667Z,11.20
2023-03-17T19:13:02.074Z,11.20
2023-03-17T19:15:29.399Z,11.10
2023-03-17T19:17:56.638Z,11.00
2023-03-17T19:20:23.908Z,10.90
2023-03-17T19:22:53.529Z,10.70
2023-03-17T19:25:21.543Z,10.70
2023-03-17T19:27:49.594Z,10.70
2023-03-17T19:30:18.318Z,10.70
2023-03-17T19:32:45.575Z,10.70
2023-03-17T19:35:13.050Z,10.70
2023-03-17T19:37:44.797Z,10.60
2023-03-17T19:40:13.675Z,10.60
2023-03-17T19:42:42.216Z,10.50
2023-03-17T19:45:10.957Z,10.50
2023-03-17T19:47:43.422Z,10.50
2023-03-17T19:50:11.591Z,10.50
2023-03-17T19:52:38.878Z,10.50
2023-03-17T19:55:08.356Z,10.50
2023-03-17T19:57:36.507Z,10.50
2023-03-17T20:00:05.545Z,10.50
2023-03-17T20:02:32.849Z,10.50
2023-03-17T20:05:00.107Z,10.50
2023-03-17T20:07:28.528Z,10.50
2023-03-17T20:09:56.933Z,10.50
2023-03-17T20:12:25.806Z,10.50
2023-03-17T20:14:54.101Z,10.40
2023-03-17T20:17:21.477Z,10.50
2023-03-17T20:19:49.005Z,10.50
2023-03-17T20:22:16.431Z,10.50
2023-03-17T20:24:43.734Z,10.50
2023-03-17T20:27:15.498Z,10.50
2023-03-17T20:29:44.360Z,10.50
2023-03-17T20:32:14.973Z,10.40
2023-03-17T20:34:45.448Z,10.40
2023-03-17T20:37:14.367Z,10.40
2023-03-17T20:39:42.611Z,10.40
2023-03-17T20:42:14.831Z,10.30
2023-03-17T20:44:43.521Z,10.30
2023-03-17T20:47:11.545Z,10.30
2023-03-17T20:49:42.484Z,10.30
2023-03-17T20:52:13.846Z,10.20
2023-03-17T20:54:42.517Z,10.30
2023-03-17T20:57:17.683Z,10.30
2023-03-17T20:59:47.322Z,10.30
2023-03-17T21:02:17.772Z,10.30
2023-03-17T21:04:47.818Z,10.30
2023-03-17T21:07:22.232Z,10.30
2023-03-17T21:09:52.444Z,10.30
2023-03-17T21:12:21.208Z,10.20
2023-03-17T21:14:49.389Z,10.20
2023-03-17T21:17:18.222Z,10.10
2023-03-17T21:19:46.828Z,10.00
2023-03-17T21:22:18.768Z,9.90
2023-03-17T21:24:46.594Z,9.90
2023-03-17T21:27:14.016Z,9.80
2023-03-17T21:29:41.654Z,9.70
2023-03-17T21:32:08.831Z,9.60
2023-03-17T21:34:40.185Z,9.60
2023-03-17T21:37:07.569Z,9.50
2023-03-17T21:39:36.368Z,9.40
2023-03-17T21:42:05.462Z,9.30
2023-03-17T21:44:32.914Z,9.30
2023-03-17T21:47:02.995Z,9.20
2023-03-17T21:49:30.257Z,9.10
2023-03-17T21:51:58.497Z,9.10
2023-03-17T21:54:25.811Z,9.00
2023-03-17T21:56:53.542Z,9.00
2023-03-17T21:59:21.323Z,9.10
2023-03-17T22:01:52.229Z,9.00
2023-03-17T22:04:19.753Z,9.00
2023-03-17T22:06:47.074Z,9.00
2023-03-17T22:09:19.227Z,9.00
2023-03-17T22:11:46.538Z,9.00
2023-03-17T22:14:20.054Z,8.90
2023-03-17T22:16:48.868Z,9.00
2023-03-17T22:19:18.724Z,9.00
2023-03-17T22:21:48.362Z,9.00
2023-03-17T22:24:16.683Z,9.00
2023-03-17T22:26:44.007Z,9.00
2023-03-17T22:29:11.379Z,9.00
2023-03-17T22:31:39.528Z,9.00
2023-03-17T22:34:10.238Z,8.90
2023-03-17T22:36:38.178Z,8.90
2023-03-17T22:39:10.001Z,8.90
2023-03-17T22:41:38.049Z,8.90
2023-03-17T22:44:06.886Z,8.90
2023-03-17T22:46:38.696Z,8.80
2023-03-17T22:49:06.203Z,8.80
2023-03-17T22:51:33.732Z,8.80
2023-03-17T22:54:01.153Z,8.80
2023-03-17T22:56:28.871Z,8.80
2023-03-17T22:58:56.578Z,8.80
2023-03-17T23:01:25.956Z,8.80
2023-03-17T23:03:54.695Z,8.80
2023-03-17T23:06:22.619Z,8.80
2023-03-17T23:08:49.999Z,8.80
2023-03-17T23:11:21.316Z,8.80
2023-03-17T23:13:48.909Z,8.80
2023-03-17T23:16:17.510Z,8.80
2023-03-17T23:18:46.786Z,8.80
2023-03-17T23:21:43.264Z,8.70
2023-03-17T23:24:10.696Z,8.80
2023-03-17T23:26:38.087Z,8.80
2023-03-17T23:29:07.318Z,8.80
2023-03-17T23:31:35.381Z,8.80
2023-03-17T23:34:03.743Z,8.80
2023-03-17T23:36:30.866Z,8.80
2023-03-17T23:38:58.234Z,8.80
2023-03-17T23:41:26.586Z,8.80
2023-03-17T23:43:54.291Z,8.90
2023-03-17T23:46:21.499Z,8.90
2023-03-17T23:48:50.029Z,8.90
2023-03-17T23:51:18.049Z,8.90
2023-03-17T23:53:46.808Z,8.90
2023-03-17T23:56:14.263Z,8.90
2023-03-17T23:58:43.545Z,8.90
